Time;durP1;ratioP1;P1;durP2;ratioP2;P2;SDS_P1;SDS_P2;PMS_P1;PMS_P2;Temp;Humidity;BMP_temperature;BMP_pressure;BME280_temperature;BME280_humidity;BME280_pressure;Samples;Min_cycle;Max_cycle;Signal;HPM_P1;HPM_P2
2022/05/14 00:01:46;;;;;;;0.10;0.10;;;;;;;;;;4925100;29;20043;-96
2022/05/14 00:04:12;;;;;;;0.10;0.10;;;;;;;;;;4924571;29;20173;-96
2022/05/14 00:06:38;;;;;;;0.10;0.10;;;;;;;;;;4925417;29;20110;-96
2022/05/14 00:09:05;;;;;;;0.10;0.10;;;;;;;;;;4925594;29;20050;-96
2022/05/14 01:15:08;;;;;;;0.10;0.10;;;;;;;;;;4997113;23;20074;-95
2022/05/14 01:17:34;;;;;;;0.10;0.10;;;;;;;;;;4943044;28;20054;-95
2022/05/14 01:20:00;;;;;;;0.00;0.00;;;;;;;;;;4927482;28;20544;-96
2022/05/14 01:22:53;;;;;;;0.10;0.10;;;;;;;;;;4923984;29;20047;-96
2022/05/14 01:28:09;;;;;;;0.10;0.10;;;;;;;;;;4925611;29;20043;-94
2022/05/14 01:30:35;;;;;;;0.10;0.10;;;;;;;;;;4923510;29;20466;-94
2022/05/14 01:33:07;;;;;;;0.10;0.10;;;;;;;;;;4923174;29;20047;-96
2022/05/14 01:35:38;;;;;;;0.10;0.10;;;;;;;;;;4939816;29;20086;-96
2022/05/14 01:38:04;;;;;;;0.10;0.10;;;;;;;;;;4908311;29;20047;-96
2022/05/14 01:40:36;;;;;;;0.10;0.10;;;;;;;;;;4925548;29;20074;-96
2022/05/14 01:43:20;;;;;;;0.10;0.10;;;;;;;;;;4961469;29;20090;-96
2022/05/14 01:46:09;;;;;;;0.10;0.10;;;;;;;;;;4948885;29;20093;-96
2022/05/14 01:48:48;;;;;;;0.17;0.17;;;;;;;;;;4947180;29;20058;-96
2022/05/14 01:51:18;;;;;;;0.10;0.10;;;;;;;;;;4929101;29;20151;-96
2022/05/14 02:09:22;;;;;;;0.10;0.10;;;;;;;;;;5824583;23;20082;-96
2022/05/14 02:11:51;;;;;;;0.05;0.05;;;;;;;;;;4907619;29;20115;-96
2022/05/14 02:14:17;;;;;;;0.10;0.10;;;;;;;;;;4907563;29;20043;-94
2022/05/14 02:16:43;;;;;;;0.10;0.10;;;;;;;;;;4906606;29;20043;-96
2022/05/14 02:19:09;;;;;;;0.10;0.10;;;;;;;;;;4907304;29;20047;-94
2022/05/14 02:21:35;;;;;;;0.10;0.10;;;;;;;;;;4922891;29;20047;-95
2022/05/14 02:24:01;;;;;;;0.10;0.10;;;;;;;;;;4907434;29;20058;-95
2022/05/14 02:26:27;;;;;;;0.05;0.05;;;;;;;;;;4907742;29;20043;-95
2022/05/14 02:28:54;;;;;;;0.10;0.10;;;;;;;;;;4907879;29;20372;-96
2022/05/14 02:31:31;;;;;;;0.10;0.10;;;;;;;;;;4912754;29;20126;-96
2022/05/14 02:34:26;;;;;;;;;;;;;;;;;;;;;
2022/05/14 02:36:56;;;;;;;0.10;0.10;;;;;;;;;;4927759;29;20105;-96
2022/05/14 02:39:22;;;;;;;0.00;0.00;;;;;;;;;;4925389;29;20051;-96
2022/05/14 02:41:48;;;;;;;0.10;0.10;;;;;;;;;;4907736;29;20151;-95
2022/05/14 02:44:14;;;;;;;0.10;0.10;;;;;;;;;;4907476;29;20138;-96
2022/05/14 02:46:40;;;;;;;0.10;0.10;;;;;;;;;;4907366;29;20047;-96
2022/05/14 02:49:07;;;;;;;0.10;0.10;;;;;;;;;;4907409;29;20053;-96
2022/05/14 02:51:33;;;;;;;0.10;0.10;;;;;;;;;;4907222;29;20039;-96
2022/05/14 02:53:59;;;;;;;0.10;0.10;;;;;;;;;;4907236;29;20047;-95
2022/05/14 02:56:25;;;;;;;0.10;0.10;;;;;;;;;;4907108;29;20083;-96
2022/05/14 02:59:09;;;;;;;0.10;0.10;;;;;;;;;;4923016;29;20203;-95
2022/05/14 03:01:35;;;;;;;0.05;0.05;;;;;;;;;;4909339;29;20062;-95
2022/05/14 03:04:01;;;;;;;0.10;0.10;;;;;;;;;;4907033;29;20043;-95
2022/05/14 03:06:28;;;;;;;0.10;0.10;;;;;;;;;;4909349;29;20050;-96
2022/05/14 03:08:54;;;;;;;0.10;0.10;;;;;;;;;;4910757;28;20047;-95
2022/05/14 03:11:21;;;;;;;0.10;0.10;;;;;;;;;;4914321;29;20447;-96
2022/05/14 03:13:48;;;;;;;0.10;0.10;;;;;;;;;;4910177;29;20039;-95
2022/05/14 03:16:14;;;;;;;0.25;0.25;;;;;;;;;;4909871;29;20444;-96
2022/05/14 03:18:41;;;;;;;0.10;0.10;;;;;;;;;;4910840;29;20043;-94
2022/05/14 03:21:07;;;;;;;0.10;0.10;;;;;;;;;;4909981;29;20089;-94
2022/05/14 03:23:33;;;;;;;0.10;0.10;;;;;;;;;;4926034;29;20392;-94
2022/05/14 03:25:59;;;;;;;0.10;0.10;;;;;;;;;;4909541;29;20098;-93
2022/05/14 03:28:25;;;;;;;0.10;0.10;;;;;;;;;;4910128;29;20487;-94
2022/05/14 03:30:51;;;;;;;0.10;0.10;;;;;;;;;;4909799;29;20522;-93
2022/05/14 03:33:17;;;;;;;0.10;0.10;;;;;;;;;;4909890;29;20039;-95
2022/05/14 03:35:43;;;;;;;0.22;0.10;;;;;;;;;;4910382;29;20399;-93
2022/05/14 03:38:09;;;;;;;0.10;0.10;;;;;;;;;;4909981;29;20035;-94
2022/05/14 03:40:35;;;;;;;0.30;0.30;;;;;;;;;;4909884;29;20050;-94
2022/05/14 03:43:01;;;;;;;0.10;0.10;;;;;;;;;;4909825;29;20043;-94
2022/05/14 03:45:29;;;;;;;0.08;0.08;;;;;;;;;;4909817;29;20134;-96
2022/05/14 03:47:55;;;;;;;0.10;0.10;;;;;;;;;;4926002;29;20086;-95
2022/05/14 03:50:21;;;;;;;0.10;0.10;;;;;;;;;;4910054;29;20063;-96
2022/05/14 03:52:47;;;;;;;0.10;0.10;;;;;;;;;;4909657;29;20471;-95
2022/05/14 03:55:13;;;;;;;0.10;0.10;;;;;;;;;;4908628;29;20039;-95
2022/05/14 03:57:39;;;;;;;0.20;0.15;;;;;;;;;;4909956;29;20134;-95
2022/05/14 04:00:11;;;;;;;0.10;0.10;;;;;;;;;;4916613;29;20102;-96
2022/05/14 04:02:40;;;;;;;0.10;0.10;;;;;;;;;;4911525;29;20050;-96
2022/05/14 04:06:20;;;;;;;;;;;;;;;;;;;;;
2022/05/14 04:09:14;;;;;;;0.10;0.10;;;;;;;;;;4961804;28;20058;-96
2022/05/14 04:12:13;;;;;;;0.10;0.10;;;;;;;;;;4946443;29;20130;-96
2022/05/14 04:15:25;;;;;;;;;;;;;;;;;;;;;
2022/05/14 04:18:28;;;;;;;0.40;0.40;;;;;;;;;;4894286;29;20419;-96
2022/05/14 04:21:13;;;;;;;;;;;;;;;;;;;;;
2022/05/14 04:26:31;;;;;;;0.10;0.10;;;;;;;;;;6108415;23;20075;-96
2022/05/14 04:28:59;;;;;;;0.10;0.10;;;;;;;;;;4927821;28;20054;-96
2022/05/14 04:31:39;;;;;;;;;;;;;;;;;;;;;
2022/05/14 04:34:37;;;;;;;0.10;0.10;;;;;;;;;;4946708;29;20051;-96
2022/05/14 04:40:56;;;;;;;0.10;0.10;;;;;;;;;;4797136;29;20109;-96
2022/05/14 04:43:22;;;;;;;0.10;0.10;;;;;;;;;;4858882;29;20055;-96
2022/05/14 04:45:48;;;;;;;0.10;0.10;;;;;;;;;;4867784;29;20104;-96
2022/05/14 04:48:14;;;;;;;0.10;0.10;;;;;;;;;;4893598;29;20047;-95
2022/05/14 04:50:40;;;;;;;0.10;0.10;;;;;;;;;;4924413;29;20506;-95
2022/05/14 04:53:06;;;;;;;0.10;0.10;;;;;;;;;;4924432;29;20221;-95
2022/05/14 04:55:32;;;;;;;0.05;0.05;;;;;;;;;;4925587;29;20043;-96
2022/05/14 04:57:59;;;;;;;0.20;0.20;;;;;;;;;;4928886;29;20020;-95
2022/05/14 05:00:25;;;;;;;0.10;0.10;;;;;;;;;;4927779;29;20503;-96
2022/05/14 05:05:36;;;;;;;0.10;0.10;;;;;;;;;;4926564;29;20051;-96
2022/05/14 05:08:02;;;;;;;0.10;0.10;;;;;;;;;;4924408;29;20051;-96
2022/05/14 05:10:28;;;;;;;0.10;0.10;;;;;;;;;;4923348;29;20039;-96
2022/05/14 05:12:54;;;;;;;0.10;0.10;;;;;;;;;;4924187;29;20047;-96
2022/05/14 05:15:20;;;;;;;0.10;0.10;;;;;;;;;;4924137;29;20145;-96
2022/05/14 05:17:46;;;;;;;0.10;0.10;;;;;;;;;;4924273;29;20062;-96
2022/05/14 05:24:05;;;;;;;0.10;0.10;;;;;;;;;;4968699;29;20110;-96
2022/05/14 05:26:40;;;;;;;0.10;0.10;;;;;;;;;;4928711;28;20039;-96
2022/05/14 05:29:14;;;;;;;0.10;0.10;;;;;;;;;;4942964;29;20051;-96
2022/05/14 05:31:43;;;;;;;0.10;0.10;;;;;;;;;;4940617;29;20105;-96
2022/05/14 05:34:12;;;;;;;0.10;0.10;;;;;;;;;;4924012;29;20047;-96
2022/05/14 05:36:38;;;;;;;0.20;0.20;;;;;;;;;;4938719;29;20075;-96
2022/05/14 05:39:05;;;;;;;0.10;0.10;;;;;;;;;;4923256;29;20587;-96
2022/05/14 05:41:41;;;;;;;0.10;0.10;;;;;;;;;;4924230;29;20050;-96
2022/05/14 05:44:07;;;;;;;0.10;0.10;;;;;;;;;;4923468;29;20046;-95
2022/05/14 05:46:33;;;;;;;0.10;0.10;;;;;;;;;;4923725;29;20039;-96
2022/05/14 05:48:59;;;;;;;0.10;0.10;;;;;;;;;;4924094;29;20109;-93
2022/05/14 05:51:25;;;;;;;0.10;0.10;;;;;;;;;;4927726;29;20507;-95
2022/05/14 05:56:51;;;;;;;0.10;0.10;;;;;;;;;;4925782;29;20054;-93
2022/05/14 05:59:20;;;;;;;0.10;0.10;;;;;;;;;;4925853;29;20043;-91
2022/05/14 06:02:01;;;;;;;0.10;0.10;;;;;;;;;;4924776;29;20043;-96
2022/05/14 06:04:40;;;;;;;;;;;;;;;;;;;;;
2022/05/14 06:07:16;;;;;;;0.10;0.10;;;;;;;;;;4939872;29;20051;-96
2022/05/14 06:09:42;;;;;;;0.10;0.10;;;;;;;;;;4924454;29;20106;-94
2022/05/14 06:12:14;;;;;;;0.10;0.10;;;;;;;;;;4923394;29;20086;-94
2022/05/14 06:14:40;;;;;;;0.10;0.10;;;;;;;;;;4923246;29;20051;-95
2022/05/14 06:17:08;;;;;;;0.10;0.10;;;;;;;;;;4922953;29;20079;-96
2022/05/14 06:19:39;;;;;;;0.10;0.10;;;;;;;;;;4939551;29;20131;-94
2022/05/14 06:22:05;;;;;;;0.10;0.10;;;;;;;;;;4922789;29;20510;-96
2022/05/14 06:24:36;;;;;;;0.10;0.10;;;;;;;;;;4923349;29;20050;-95
2022/05/14 06:27:03;;;;;;;0.10;0.10;;;;;;;;;;4922742;29;20063;-96
2022/05/14 06:29:31;;;;;;;0.10;0.10;;;;;;;;;;4922648;29;20055;-95
2022/05/14 06:31:57;;;;;;;0.10;0.10;;;;;;;;;;4923089;29;20043;-93
2022/05/14 06:34:23;;;;;;;0.10;0.10;;;;;;;;;;4922385;29;20039;-95
2022/05/14 06:36:52;;;;;;;0.13;0.13;;;;;;;;;;4922773;29;20039;-96
2022/05/14 06:39:19;;;;;;;0.10;0.10;;;;;;;;;;4922860;28;20122;-94
2022/05/14 06:41:47;;;;;;;0.80;0.80;;;;;;;;;;4925596;29;20090;-96
2022/05/14 06:44:22;;;;;;;0.20;0.20;;;;;;;;;;4944220;29;20043;-94
2022/05/14 06:46:48;;;;;;;0.10;0.10;;;;;;;;;;4926678;29;20062;-94
2022/05/14 06:49:18;;;;;;;0.10;0.10;;;;;;;;;;4926602;29;20391;-93
2022/05/14 06:51:47;;;;;;;0.10;0.10;;;;;;;;;;4927973;29;20035;-94
2022/05/14 06:54:15;;;;;;;0.10;0.10;;;;;;;;;;4941722;29;20051;-92
2022/05/14 06:56:42;;;;;;;0.25;0.25;;;;;;;;;;4926109;29;20126;-92
2022/05/14 06:59:08;;;;;;;0.10;0.10;;;;;;;;;;4925956;29;20082;-92
2022/05/14 07:01:34;;;;;;;0.63;0.20;;;;;;;;;;4925640;29;20078;-91
2022/05/14 07:06:46;;;;;;;0.10;0.10;;;;;;;;;;4928135;29;20047;-92
2022/05/14 07:09:16;;;;;;;0.10;0.10;;;;;;;;;;4938532;29;20055;-92
2022/05/14 07:11:43;;;;;;;0.10;0.10;;;;;;;;;;4906864;29;20392;-93
2022/05/14 07:14:10;;;;;;;0.10;0.10;;;;;;;;;;4922706;29;20055;-91
2022/05/14 07:16:36;;;;;;;0.22;0.22;;;;;;;;;;4938497;29;20435;-93
2022/05/14 07:19:02;;;;;;;0.10;0.10;;;;;;;;;;4922455;29;20623;-93
2022/05/14 07:21:28;;;;;;;0.73;0.45;;;;;;;;;;4925314;29;20031;-93
2022/05/14 07:23:54;;;;;;;0.10;0.10;;;;;;;;;;4926208;29;20046;-94
2022/05/14 07:26:20;;;;;;;0.10;0.10;;;;;;;;;;4925578;29;20039;-94
2022/05/14 07:28:46;;;;;;;0.10;0.10;;;;;;;;;;4925228;29;20044;-93
2022/05/14 07:31:12;;;;;;;0.10;0.10;;;;;;;;;;4925409;29;20139;-93
2022/05/14 07:33:38;;;;;;;0.10;0.10;;;;;;;;;;4925059;29;20079;-93
2022/05/14 07:36:09;;;;;;;0.20;0.20;;;;;;;;;;4925260;29;20039;-94
2022/05/14 07:38:35;;;;;;;0.35;0.35;;;;;;;;;;4925719;29;20130;-94
2022/05/14 07:41:02;;;;;;;0.10;0.10;;;;;;;;;;4924720;29;20047;-94
2022/05/14 07:43:30;;;;;;;0.10;0.10;;;;;;;;;;4925341;29;20050;-92
2022/05/14 07:45:57;;;;;;;0.10;0.10;;;;;;;;;;4925470;29;20039;-93
2022/05/14 07:48:24;;;;;;;0.10;0.10;;;;;;;;;;4925047;29;20479;-92
2022/05/14 07:50:50;;;;;;;0.30;0.30;;;;;;;;;;4924774;29;20407;-93
2022/05/14 07:53:16;;;;;;;0.10;0.10;;;;;;;;;;4923312;29;20039;-94
2022/05/14 07:55:43;;;;;;;0.10;0.10;;;;;;;;;;4924760;29;20050;-92
2022/05/14 07:58:09;;;;;;;0.73;0.73;;;;;;;;;;4924647;29;20399;-91
2022/05/14 08:00:35;;;;;;;0.13;0.13;;;;;;;;;;4924523;29;20082;-92
2022/05/14 08:03:01;;;;;;;0.10;0.10;;;;;;;;;;4925113;29;20105;-91
2022/05/14 08:05:27;;;;;;;0.10;0.10;;;;;;;;;;4924188;29;20050;-90
2022/05/14 08:07:53;;;;;;;0.20;0.20;;;;;;;;;;4923965;29;20122;-90
2022/05/14 08:10:19;;;;;;;0.10;0.10;;;;;;;;;;4923707;29;20051;-90
2022/05/14 08:12:51;;;;;;;0.52;0.52;;;;;;;;;;4923949;29;20122;-91
2022/05/14 08:15:18;;;;;;;0.10;0.10;;;;;;;;;;4924421;29;20043;-91
2022/05/14 08:17:44;;;;;;;0.10;0.10;;;;;;;;;;4923758;29;20050;-91
2022/05/14 08:20:10;;;;;;;0.10;0.10;;;;;;;;;;4924008;29;20053;-90
2022/05/14 08:25:21;;;;;;;0.20;0.20;;;;;;;;;;4926313;29;20051;-93
2022/05/14 08:27:49;;;;;;;0.10;0.10;;;;;;;;;;4923785;29;20070;-94
2022/05/14 08:30:14;;;;;;;0.10;0.10;;;;;;;;;;4922982;29;20126;-94
2022/05/14 08:32:41;;;;;;;0.32;0.32;;;;;;;;;;4923820;29;20039;-91
2022/05/14 08:35:07;;;;;;;0.30;0.30;;;;;;;;;;4923931;29;20039;-91
2022/05/14 08:37:33;;;;;;;0.20;0.20;;;;;;;;;;4924083;29;20039;-93
2022/05/14 08:40:01;;;;;;;0.20;0.20;;;;;;;;;;4924375;29;20075;-96
2022/05/14 08:42:27;;;;;;;0.10;0.10;;;;;;;;;;4929599;29;20043;-94
2022/05/14 08:44:53;;;;;;;0.10;0.10;;;;;;;;;;4924265;29;20043;-94
2022/05/14 08:47:27;;;;;;;0.15;0.15;;;;;;;;;;4924202;29;20039;-95
2022/05/14 08:49:53;;;;;;;0.20;0.20;;;;;;;;;;4924873;29;20043;-95
2022/05/14 08:52:21;;;;;;;0.20;0.20;;;;;;;;;;4920941;29;20088;-95
2022/05/14 08:54:48;;;;;;;0.10;0.10;;;;;;;;;;4920216;29;20047;-95
2022/05/14 08:57:24;;;;;;;0.13;0.13;;;;;;;;;;4920756;29;20050;-93
2022/05/14 09:00:00;;;;;;;0.20;0.20;;;;;;;;;;4911820;29;20178;-96
2022/05/14 09:02:30;;;;;;;0.10;0.10;;;;;;;;;;4906024;29;20039;-94
2022/05/14 09:05:01;;;;;;;0.10;0.10;;;;;;;;;;4921990;29;20101;-95
2022/05/14 09:07:34;;;;;;;0.17;0.17;;;;;;;;;;4940380;29;20039;-95
2022/05/14 09:10:10;;;;;;;0.10;0.10;;;;;;;;;;4940593;29;20646;-96
2022/05/14 09:12:37;;;;;;;0.10;0.10;;;;;;;;;;4940815;29;20074;-95
2022/05/14 09:15:04;;;;;;;0.57;0.30;;;;;;;;;;4939771;29;20039;-93
2022/05/14 09:17:30;;;;;;;0.10;0.10;;;;;;;;;;4940589;29;20051;-95
2022/05/14 09:19:57;;;;;;;0.10;0.10;;;;;;;;;;4941208;29;20143;-95
2022/05/14 09:22:23;;;;;;;1.35;0.68;;;;;;;;;;4941838;29;20042;-94
2022/05/14 09:24:50;;;;;;;0.13;0.13;;;;;;;;;;4939457;29;20399;-93
2022/05/14 09:27:22;;;;;;;0.10;0.10;;;;;;;;;;4924522;29;20051;-95
2022/05/14 09:29:57;;;;;;;0.10;0.10;;;;;;;;;;4922725;29;20107;-96
2022/05/14 09:32:28;;;;;;;0.20;0.20;;;;;;;;;;4938696;29;20070;-96
2022/05/14 09:35:03;;;;;;;0.35;0.35;;;;;;;;;;4923349;29;20124;-94
2022/05/14 09:37:29;;;;;;;0.20;0.20;;;;;;;;;;4924253;29;20043;-96
2022/05/14 09:46:34;;;;;;;;;;;;;;;;;;;;;
2022/05/14 10:01:00;;;;;;;0.20;0.20;;;;;;;;;;4945887;29;20047;-96
2022/05/14 10:06:15;;;;;;;0.20;0.20;;;;;;;;;;4957723;29;20051;-96
2022/05/14 10:12:38;;;;;;;0.10;0.10;;;;;;;;;;4959154;29;20198;-95
2022/05/14 10:15:23;;;;;;;0.20;0.20;;;;;;;;;;4938487;29;20039;-94
2022/05/14 10:18:05;;;;;;;0.20;0.20;;;;;;;;;;4954580;29;20775;-95
2022/05/14 10:21:17;;;;;;;0.10;0.10;;;;;;;;;;4914287;29;20039;-96
2022/05/14 10:30:34;;;;;;;0.52;0.17;;;;;;;;;;4863429;29;20080;-94
2022/05/14 10:33:08;;;;;;;0.10;0.10;;;;;;;;;;4924106;29;20043;-96
2022/05/14 10:35:43;;;;;;;0.32;0.32;;;;;;;;;;4927231;29;20114;-94
2022/05/14 10:38:14;;;;;;;0.43;0.43;;;;;;;;;;4911321;29;20051;-95
2022/05/14 10:40:44;;;;;;;0.40;0.40;;;;;;;;;;4942285;29;20097;-96
2022/05/14 10:43:31;;;;;;;3.10;0.90;;;;;;;;;;4912827;29;20050;-96
2022/05/14 10:46:25;;;;;;;0.10;0.10;;;;;;;;;;4907260;29;20052;-96
2022/05/14 10:49:29;;;;;;;0.10;0.10;;;;;;;;;;4912045;29;20052;-96
2022/05/14 10:52:55;;;;;;;0.10;0.10;;;;;;;;;;4916914;29;20048;-96
2022/05/14 10:55:41;;;;;;;;;;;;;;;;;;;;;
2022/05/14 10:58:10;;;;;;;0.10;0.10;;;;;;;;;;4901144;29;20067;-95
2022/05/14 11:00:40;;;;;;;1.50;0.70;;;;;;;;;;4867160;29;20088;-96
2022/05/14 11:03:17;;;;;;;0.20;0.10;;;;;;;;;;4869891;29;20080;-96
2022/05/14 11:05:52;;;;;;;0.20;0.20;;;;;;;;;;4885882;29;20061;-96
2022/05/14 11:08:51;;;;;;;0.10;0.10;;;;;;;;;;4870486;29;20059;-96
2022/05/14 11:22:01;;;;;;;0.35;0.35;;;;;;;;;;4960089;28;20130;-96
2022/05/14 11:24:37;;;;;;;0.20;0.20;;;;;;;;;;4959915;29;20245;-92
2022/05/14 11:27:04;;;;;;;0.10;0.10;;;;;;;;;;4923797;29;20054;-92
2022/05/14 11:29:33;;;;;;;1.95;0.28;;;;;;;;;;4925227;29;20050;-91
2022/05/14 11:32:07;;;;;;;0.10;0.10;;;;;;;;;;4924883;29;20086;-91
2022/05/14 11:34:33;;;;;;;0.10;0.10;;;;;;;;;;4925086;29;20043;-91
2022/05/14 11:37:00;;;;;;;0.17;0.17;;;;;;;;;;4924916;29;20050;-92
2022/05/14 11:39:30;;;;;;;0.10;0.10;;;;;;;;;;4925310;29;20491;-94
2022/05/14 11:42:14;;;;;;;0.15;0.15;;;;;;;;;;4941284;29;20063;-93
2022/05/14 11:44:47;;;;;;;0.10;0.10;;;;;;;;;;4926386;29;20047;-94
2022/05/14 11:47:42;;;;;;;0.10;0.10;;;;;;;;;;4925247;29;20062;-93
2022/05/14 11:50:13;;;;;;;0.32;0.32;;;;;;;;;;4910819;29;20047;-92
2022/05/14 11:53:11;;;;;;;0.30;0.30;;;;;;;;;;4924825;29;20408;-90
2022/05/14 11:56:10;;;;;;;0.10;0.10;;;;;;;;;;4874225;29;20071;-90
2022/05/14 11:58:54;;;;;;;0.10;0.10;;;;;;;;;;4874034;29;20199;-89
2022/05/14 12:01:22;;;;;;;0.10;0.10;;;;;;;;;;4924330;29;20105;-90
2022/05/14 12:03:48;;;;;;;0.35;0.35;;;;;;;;;;4909040;29;20102;-91
2022/05/14 12:06:14;;;;;;;1.25;1.15;;;;;;;;;;4908529;29;20043;-91
2022/05/14 12:08:43;;;;;;;1.00;1.00;;;;;;;;;;4922856;29;20047;-91
2022/05/14 12:11:28;;;;;;;0.30;0.30;;;;;;;;;;4940043;29;20043;-90
2022/05/14 12:14:03;;;;;;;0.10;0.10;;;;;;;;;;4924283;29;20039;-91
2022/05/14 12:16:30;;;;;;;0.30;0.30;;;;;;;;;;4939873;29;20050;-90
2022/05/14 12:18:56;;;;;;;0.10;0.10;;;;;;;;;;4940090;29;20542;-91
2022/05/14 12:21:22;;;;;;;0.10;0.10;;;;;;;;;;4923947;29;20059;-91
2022/05/14 12:23:49;;;;;;;0.20;0.20;;;;;;;;;;4939953;29;20109;-91
2022/05/14 12:26:26;;;;;;;0.10;0.10;;;;;;;;;;4939297;29;20057;-90
2022/05/14 12:28:52;;;;;;;0.10;0.10;;;;;;;;;;4923402;29;20041;-90
2022/05/14 12:34:08;;;;;;;0.10;0.10;;;;;;;;;;4939335;29;20562;-89
2022/05/14 12:36:35;;;;;;;0.82;0.82;;;;;;;;;;4923121;29;20039;-89
2022/05/14 12:39:03;;;;;;;0.10;0.10;;;;;;;;;;4922452;29;20464;-89
2022/05/14 12:41:32;;;;;;;0.10;0.10;;;;;;;;;;4922961;29;20040;-87
2022/05/14 12:44:12;;;;;;;0.10;0.10;;;;;;;;;;4922850;29;20043;-86
2022/05/14 12:46:39;;;;;;;0.20;0.20;;;;;;;;;;4938705;29;20058;-86
2022/05/14 12:49:05;;;;;;;1.02;0.35;;;;;;;;;;4938646;29;20133;-86
2022/05/14 12:51:31;;;;;;;0.10;0.10;;;;;;;;;;4938300;29;20090;-87
2022/05/14 12:53:57;;;;;;;0.10;0.10;;;;;;;;;;4938375;29;20043;-87
2022/05/14 12:56:23;;;;;;;0.10;0.10;;;;;;;;;;4938283;29;20043;-88
2022/05/14 12:58:49;;;;;;;0.13;0.13;;;;;;;;;;4936915;29;20086;-87
2022/05/14 13:01:15;;;;;;;0.15;0.15;;;;;;;;;;4938034;29;20055;-87
2022/05/14 13:03:42;;;;;;;0.10;0.10;;;;;;;;;;4938016;29;20074;-87
2022/05/14 13:06:10;;;;;;;0.10;0.10;;;;;;;;;;4922620;29;20075;-87
2022/05/14 13:08:36;;;;;;;0.10;0.10;;;;;;;;;;4922400;29;20126;-85
2022/05/14 13:11:04;;;;;;;0.10;0.10;;;;;;;;;;4938173;29;20561;-85
2022/05/14 13:13:33;;;;;;;0.10;0.10;;;;;;;;;;4922190;29;20451;-85
2022/05/14 13:15:59;;;;;;;0.10;0.10;;;;;;;;;;4937955;29;20094;-85
2022/05/14 13:18:28;;;;;;;0.10;0.10;;;;;;;;;;4922243;29;20050;-85
2022/05/14 13:21:11;;;;;;;0.10;0.10;;;;;;;;;;4937506;29;20062;-87
2022/05/14 13:23:37;;;;;;;0.38;0.38;;;;;;;;;;4922122;29;20051;-88
2022/05/14 13:26:04;;;;;;;1.15;0.32;;;;;;;;;;4937932;29;20051;-87
2022/05/14 13:28:34;;;;;;;0.10;0.10;;;;;;;;;;4921875;29;20511;-88
2022/05/14 13:31:01;;;;;;;0.10;0.10;;;;;;;;;;4937647;29;20045;-87
2022/05/14 13:33:35;;;;;;;0.10;0.10;;;;;;;;;;4937492;29;20510;-88
2022/05/14 13:38:58;;;;;;;0.10;0.10;;;;;;;;;;4940162;29;20061;-88
2022/05/14 13:41:29;;;;;;;0.10;0.10;;;;;;;;;;4921700;29;20182;-89
2022/05/14 13:44:00;;;;;;;0.10;0.10;;;;;;;;;;4921599;29;20051;-88
2022/05/14 13:46:30;;;;;;;0.10;0.10;;;;;;;;;;4906317;29;20062;-88
2022/05/14 13:48:56;;;;;;;0.28;0.28;;;;;;;;;;4905827;28;20039;-88
2022/05/14 13:51:36;;;;;;;0.10;0.10;;;;;;;;;;4905863;29;20090;-89
2022/05/14 13:54:10;;;;;;;0.20;0.20;;;;;;;;;;4906215;29;20043;-88
2022/05/14 13:56:36;;;;;;;0.10;0.10;;;;;;;;;;4921916;29;20047;-88
2022/05/14 13:59:09;;;;;;;0.30;0.30;;;;;;;;;;4909022;29;20046;-88
2022/05/14 14:01:48;;;;;;;0.10;0.10;;;;;;;;;;4918094;29;20059;-88
2022/05/14 14:04:15;;;;;;;0.10;0.10;;;;;;;;;;4917624;29;20143;-88
2022/05/14 14:06:41;;;;;;;0.85;0.85;;;;;;;;;;4909526;29;20051;-89
2022/05/14 14:09:08;;;;;;;0.47;0.47;;;;;;;;;;4921356;29;20130;-89
2022/05/14 14:11:35;;;;;;;0.10;0.10;;;;;;;;;;4921174;28;20046;-88
2022/05/14 14:14:01;;;;;;;0.10;0.10;;;;;;;;;;4937026;29;20043;-88
2022/05/14 14:16:27;;;;;;;0.10;0.10;;;;;;;;;;4921320;29;20031;-88
2022/05/14 14:18:53;;;;;;;4.32;0.80;;;;;;;;;;4905353;29;20484;-89
2022/05/14 14:21:19;;;;;;;0.25;0.25;;;;;;;;;;4905762;29;20047;-89
2022/05/14 14:23:46;;;;;;;0.10;0.10;;;;;;;;;;4921556;29;20059;-88
2022/05/14 14:26:13;;;;;;;0.10;0.10;;;;;;;;;;4921287;29;20097;-88
2022/05/14 14:28:39;;;;;;;0.38;0.38;;;;;;;;;;4905652;29;20047;-88
2022/05/14 14:31:05;;;;;;;0.10;0.10;;;;;;;;;;4920892;29;20074;-88
2022/05/14 14:33:32;;;;;;;0.10;0.10;;;;;;;;;;4921027;29;20495;-88
2022/05/14 14:35:58;;;;;;;0.10;0.10;;;;;;;;;;4920894;29;20040;-89
2022/05/14 14:38:24;;;;;;;0.10;0.10;;;;;;;;;;4936812;29;20035;-88
2022/05/14 14:40:50;;;;;;;0.10;0.10;;;;;;;;;;4916331;29;20415;-89
2022/05/14 14:43:16;;;;;;;0.20;0.20;;;;;;;;;;4935480;29;20039;-89
2022/05/14 14:45:44;;;;;;;0.10;0.10;;;;;;;;;;4917873;29;20385;-88
2022/05/14 14:48:11;;;;;;;0.15;0.15;;;;;;;;;;4915116;29;20446;-88
2022/05/14 14:50:37;;;;;;;0.10;0.10;;;;;;;;;;4921179;29;20047;-87
2022/05/14 14:53:03;;;;;;;0.10;0.10;;;;;;;;;;4920862;29;20099;-87
2022/05/14 14:55:29;;;;;;;0.10;0.10;;;;;;;;;;4920832;29;20039;-87
2022/05/14 14:57:55;;;;;;;0.20;0.20;;;;;;;;;;4936515;29;20063;-87
2022/05/14 15:00:22;;;;;;;1.10;0.20;;;;;;;;;;4936583;29;20503;-90
2022/05/14 15:03:08;;;;;;;3.13;0.73;;;;;;;;;;4924094;29;20091;-89
2022/05/14 15:05:36;;;;;;;0.10;0.10;;;;;;;;;;4911908;29;20050;-88
2022/05/14 15:08:02;;;;;;;0.68;0.68;;;;;;;;;;4924198;29;20043;-87
2022/05/14 15:10:29;;;;;;;1.23;0.43;;;;;;;;;;4924375;29;20047;-87
2022/05/14 15:12:55;;;;;;;0.10;0.10;;;;;;;;;;4924485;29;20047;-89
2022/05/14 15:15:20;;;;;;;0.10;0.10;;;;;;;;;;4924531;29;20043;-88
2022/05/14 15:17:46;;;;;;;0.17;0.17;;;;;;;;;;4924482;29;20039;-88
2022/05/14 15:20:13;;;;;;;0.10;0.10;;;;;;;;;;4924003;29;20613;-88
2022/05/14 15:22:40;;;;;;;0.20;0.20;;;;;;;;;;4939761;29;20055;-88
2022/05/14 15:25:06;;;;;;;0.20;0.20;;;;;;;;;;4923829;29;20130;-88
2022/05/14 15:27:32;;;;;;;0.10;0.10;;;;;;;;;;4924861;29;20483;-91
2022/05/14 15:29:58;;;;;;;1.65;1.08;;;;;;;;;;4926267;29;20479;-89
2022/05/14 15:32:24;;;;;;;0.10;0.10;;;;;;;;;;4925205;29;20071;-89
2022/05/14 15:34:50;;;;;;;0.10;0.10;;;;;;;;;;4924335;29;20074;-89
2022/05/14 15:37:17;;;;;;;0.10;0.10;;;;;;;;;;4924244;29;20094;-89
2022/05/14 15:39:43;;;;;;;0.10;0.10;;;;;;;;;;4924180;29;20036;-89
2022/05/14 15:42:10;;;;;;;0.10;0.10;;;;;;;;;;4924221;29;20054;-89
2022/05/14 15:44:37;;;;;;;0.10;0.10;;;;;;;;;;4923910;29;20078;-88
2022/05/14 15:47:05;;;;;;;0.22;0.22;;;;;;;;;;4924200;29;20088;-88
2022/05/14 15:49:36;;;;;;;0.10;0.10;;;;;;;;;;4924155;29;20388;-89
2022/05/14 15:52:02;;;;;;;0.10;0.10;;;;;;;;;;4924243;29;20046;-88
2022/05/14 15:54:28;;;;;;;0.20;0.20;;;;;;;;;;4924578;29;20074;-88
2022/05/14 15:56:55;;;;;;;0.20;0.20;;;;;;;;;;4924018;29;20039;-88
2022/05/14 15:59:21;;;;;;;0.10;0.10;;;;;;;;;;4939701;29;20039;-89
2022/05/14 16:01:46;;;;;;;0.20;0.20;;;;;;;;;;4923757;28;20050;-89
2022/05/14 16:04:13;;;;;;;1.38;0.65;;;;;;;;;;4923612;29;20047;-89
2022/05/14 16:06:39;;;;;;;0.25;0.25;;;;;;;;;;4923199;29;20047;-89
2022/05/14 16:09:05;;;;;;;0.10;0.10;;;;;;;;;;4923572;29;20050;-89
2022/05/14 16:17:00;;;;;;;0.40;0.40;;;;;;;;;;4907221;29;20076;-91
2022/05/14 16:19:26;;;;;;;0.40;0.40;;;;;;;;;;4905466;29;20093;-92
2022/05/14 16:21:52;;;;;;;0.10;0.10;;;;;;;;;;4904857;29;20111;-91
2022/05/14 16:24:18;;;;;;;0.10;0.10;;;;;;;;;;4905590;29;20047;-91
2022/05/14 16:26:44;;;;;;;0.10;0.10;;;;;;;;;;4908018;29;20047;-92
2022/05/14 16:29:11;;;;;;;0.20;0.20;;;;;;;;;;4923769;29;20074;-91
2022/05/14 16:31:37;;;;;;;0.10;0.10;;;;;;;;;;4939746;29;20047;-92
2022/05/14 16:34:03;;;;;;;0.10;0.10;;;;;;;;;;4923983;29;20049;-92
2022/05/14 16:36:29;;;;;;;0.20;0.20;;;;;;;;;;4920341;29;20118;-92
2022/05/14 16:38:55;;;;;;;0.10;0.10;;;;;;;;;;4922297;29;20055;-91
2022/05/14 16:41:21;;;;;;;0.10;0.10;;;;;;;;;;4939463;29;20043;-91
2022/05/14 16:43:47;;;;;;;0.10;0.10;;;;;;;;;;4923371;29;20039;-91
2022/05/14 16:46:13;;;;;;;0.10;0.10;;;;;;;;;;4922139;29;20043;-91
2022/05/14 16:48:42;;;;;;;0.10;0.10;;;;;;;;;;4920033;29;20202;-91
2022/05/14 16:51:08;;;;;;;0.10;0.10;;;;;;;;;;4936223;29;20030;-91
2022/05/14 16:53:38;;;;;;;0.10;0.10;;;;;;;;;;4923614;29;20039;-91
2022/05/14 16:56:06;;;;;;;0.10;0.10;;;;;;;;;;4924478;29;20387;-92
2022/05/14 16:58:32;;;;;;;0.10;0.10;;;;;;;;;;4923122;29;20049;-92
2022/05/14 17:00:58;;;;;;;0.52;0.35;;;;;;;;;;4923436;29;20090;-91
2022/05/14 17:03:24;;;;;;;0.10;0.10;;;;;;;;;;4923885;29;20054;-92
2022/05/14 17:05:50;;;;;;;0.10;0.10;;;;;;;;;;4923290;29;20506;-92
2022/05/14 17:08:16;;;;;;;0.10;0.10;;;;;;;;;;4923334;29;20105;-91
2022/05/14 17:10:44;;;;;;;1.65;1.55;;;;;;;;;;4923441;29;20039;-91
2022/05/14 17:13:10;;;;;;;0.35;0.20;;;;;;;;;;4922939;29;20128;-91
2022/05/14 17:15:36;;;;;;;0.10;0.10;;;;;;;;;;4907146;29;20074;-93
2022/05/14 17:18:02;;;;;;;0.10;0.10;;;;;;;;;;4922866;29;20514;-92
2022/05/14 17:20:30;;;;;;;0.10;0.10;;;;;;;;;;4923000;29;20059;-91
2022/05/14 17:22:56;;;;;;;0.10;0.10;;;;;;;;;;4922886;29;20400;-91
2022/05/14 17:25:22;;;;;;;0.38;0.38;;;;;;;;;;4938282;29;20050;-91
2022/05/14 17:27:48;;;;;;;0.10;0.10;;;;;;;;;;4922683;29;20183;-92
2022/05/14 17:30:15;;;;;;;0.80;0.63;;;;;;;;;;4922914;29;20058;-90
2022/05/14 17:32:41;;;;;;;0.10;0.10;;;;;;;;;;4922531;29;20130;-90
2022/05/14 17:35:07;;;;;;;0.20;0.20;;;;;;;;;;4922581;29;20133;-90
2022/05/14 17:40:18;;;;;;;0.10;0.10;;;;;;;;;;4924779;29;20083;-90
2022/05/14 17:42:45;;;;;;;0.15;0.15;;;;;;;;;;4922503;29;20039;-91
2022/05/14 17:45:11;;;;;;;0.10;0.10;;;;;;;;;;4938013;29;20051;-91
2022/05/14 17:47:37;;;;;;;0.10;0.10;;;;;;;;;;4922757;29;20047;-93